Cognac-Châteaubernard (BA 709) Air Base

LFBG · Charente, Nouvelle-Aquitaine, 法国

罗盘
风向 的 风向 030° Cognac-Châteaubernard (BA 709) Air Base 5/23
风: 5 kt, 2 beaufort

5 kt

2 kt
改变
0 1.000 2.000 3.000 4.000 5.000
OVC 2.900 ft
METAR LFBU 021330Z AUTO 03005KT 9999 OVC029 06/01 Q1017 TEMPO OVC010

METAR Cognac-Châteaubernard (BA 709) Air Base - LFBG/CNG

Cognac-Châteaubernard (BA 709) Air Base是,法国中的中型机场。 该机场有2条跑道: 5/23 和 8/26. 该领域的国际民航组织标志是LFBG 它的国际航空运输协会代码是CNG.

这份报告是针对2022年12月2日 14:30, 当地时间在Angoulême-Brie-Champniers Airport进行的。

机场观察

风向为030°,速度为5 kt。

可见度为10 km 或者更多。

有乌云密布在2.900 ft的高度。 破损或更高的上限为2.900 ft。

温度为6 °C,阵风为3 °C。 露点为1 °C,相对湿度为71%。 海平面上的气压为1017 hPa (QNH)。

发展趋势

  • 暂时的

    可变方向的风很小或没有。 乌云密布在1.000 ft的高度.

白天

今天,太阳从08:22升起,在17:18降落。 这适用于Cognac-Châteaubernard (BA 709) Air Base,世界夏令时可能有所不同。 当地时间与世界标准时间之间的时差为+1 小时。 当前,没有夏令时有效。

公司介绍

在这个机场,你可以找到飞行俱乐部。 本场上唯一已知的公司是Les Ailes Cognaçaises。

体会

到Vliegles.nl去找飞行课程,跳伞和其他飞行体验。 浏览页面,了解Cognac-Châteaubernard (BA 709) Air Base附近所有可用的活动。 你也可以使用搜索功能来寻找你所在地附近的特定飞行课程、跳伞或其他飞行体验。

跑道

Id 标题 侧风 逆风 侧风 %
5/23 050°-230° 2 kt 5 kt 34 %
8/26 080°-260° 4 kt 3 kt 77 %

逆风成分最大的方向会被突出显示,并用于横风计算。 这并不一定意味着这个方向在使用。

乌云

2.900 ft OVC 乌云密布
1.000 ft OVC 暂时的 乌云密布

温度 & 天气

温度 6 °C
露点 1 °C
相对湿度 71%
风寒 3 °C
Kp-index 2 (0-9)

白天

日出
08:20
中午
12:48
日落
17:16 (2:11)

小工具

你想在你的网站上有一个关于Cognac-Châteaubernard (BA 709) Air Base的当前航空天气(METAR)的小部件吗?

显示HTML代码

我们和第三方通过cookies跟踪您在我们网站上的互联网行为。如果你继续,我们认为你同意我们的饼干政策